^^
Station Historical Data
Daily Summary for February 26, 2017 Units:  Both    English   Metric
« Previous Day
Next Day »
Daily Weekly Monthly Yearly Custom
  High: Low: Average:
Temperature: 82.8 °F /  28.2 °C 67.5 °F /  19.7 °C 73.3 °F /  22.9 °C
Dew Point: 60.4 °F /  15.8 °C 48.2 °F /  9 °C 55.9 °F /  13.3 °C
Humidity: 72% 38% 55%
Wind Speed: 16.1mph /  25.9km/h - 4mph /  6.4km/h
Wind Gust: 21.0mph /  33.8km/h - -
Wind- - ESE
Pressure: 29.79 in /  1008.7 hPa 29.66 in /  1004.3 hPa -
Precipitation: 0.00 in /  0 mm    
Historical Graphs
 
 
Tabular Data for February 26, 2017
Time Temperature Dew Point Pressure Wind Wind Speed Wind Gust Humidity Rainfall Rate (Hourly) solar Conditions
00:05 73.4 °F /  23 °C 48.2 °F /  9 °C 29.79in /  1008.7hPa Calm   2.0mph /  3.2km/h 41% 0.00in /  0mm 0.0 W/m2
00:11 73.0 °F /  22.8 °C 49.3 °F /  9.6 °C 29.79in /  1008.7hPa SSE 4.0mph /  6.4km/h 5.0mph /  8km/h 43% 0.00in /  0mm 0.0 W/m2
00:17 72.7 °F /  22.6 °C 49.5 °F /  9.7 °C 29.79in /  1008.7hPa SSW 6.0mph /  9.7km/h 6.0mph /  9.7km/h 44% 0.00in /  0mm 0.0 W/m2
00:23 72.1 °F /  22.3 °C 49.6 °F /  9.8 °C 29.79in /  1008.7hPa Calm   3.0mph /  4.8km/h 45% 0.00in /  0mm 0.0 W/m2
00:29 71.6 °F /  22 °C 49.6 °F /  9.8 °C 29.78in /  1008.4hPa SE 0.9mph /  1.4km/h 4.0mph /  6.4km/h 46% 0.00in /  0mm 0.0 W/m2
00:35 71.2 °F /  21.8 °C 49.5 °F /  9.7 °C 29.78in /  1008.4hPa East 0.9mph /  1.4km/h 7.0mph /  11.3km/h 46% 0.00in /  0mm 0.0 W/m2
00:41 70.9 °F /  21.6 °C 49.1 °F /  9.5 °C 29.78in /  1008.4hPa South 0.9mph /  1.4km/h 3.0mph /  4.8km/h 46% 0.00in /  0mm 0.0 W/m2
00:48 70.9 °F /  21.6 °C 49.6 °F /  9.8 °C 29.78in /  1008.4hPa SE 2.9mph /  4.7km/h 3.0mph /  4.8km/h 47% 0.00in /  0mm 0.0 W/m2
00:54 70.7 °F /  21.5 °C 49.5 °F /  9.7 °C 29.78in /  1008.4hPa SE 0.9mph /  1.4km/h 3.0mph /  4.8km/h 47% 0.00in /  0mm 0.0 W/m2
01:00 70.5 °F /  21.4 °C 49.3 °F /  9.6 °C 29.78in /  1008.4hPa SE 2.0mph /  3.2km/h 5.0mph /  8km/h 47% 0.00in /  0mm 0.0 W/m2
01:06 70.5 °F /  21.4 °C 49.3 °F /  9.6 °C 29.78in /  1008.4hPa Calm   2.0mph /  3.2km/h 47% 0.00in /  0mm 0.0 W/m2
01:12 70.5 °F /  21.4 °C 49.8 °F /  9.9 °C 29.78in /  1008.4hPa SSW 2.9mph /  4.7km/h 5.0mph /  8km/h 48% 0.00in /  0mm 0.0 W/m2
01:18 70.3 °F /  21.3 °C 50.4 °F /  10.2 °C 29.77in /  1008hPa ESE 0.9mph /  1.4km/h 3.0mph /  4.8km/h 49% 0.00in /  0mm 0.0 W/m2
01:24 70.2 °F /  21.2 °C 50.2 °F /  10.1 °C 29.77in /  1008hPa SSE 4.0mph /  6.4km/h 5.0mph /  8km/h 49% 0.00in /  0mm 0.0 W/m2
01:31 70.3 °F /  21.3 °C 49.6 °F /  9.8 °C 29.77in /  1008hPa SE 2.9mph /  4.7km/h 4.0mph /  6.4km/h 48% 0.00in /  0mm 0.0 W/m2
01:37 70.7 °F /  21.5 °C 50.0 °F /  10 °C 29.77in /  1008hPa ESE 0.9mph /  1.4km/h 8.0mph /  12.9km/h 48% 0.00in /  0mm 0.0 W/m2
01:43 71.1 °F /  21.7 °C 50.4 °F /  10.2 °C 29.77in /  1008hPa SE 8.1mph /  13km/h 8.1mph /  13km/h 48% 0.00in /  0mm 0.0 W/m2
01:49 71.2 °F /  21.8 °C 50.5 °F /  10.3 °C 29.77in /  1008hPa Calm   6.0mph /  9.7km/h 48% 0.00in /  0mm 0.0 W/m2
01:55 71.2 °F /  21.8 °C 50.5 °F /  10.3 °C 29.77in /  1008hPa ESE 4.9mph /  7.9km/h 7.0mph /  11.3km/h 48% 0.00in /  0mm 0.0 W/m2
02:01 71.4 °F /  21.9 °C 50.7 °F /  10.4 °C 29.77in /  1008hPa SE 4.0mph /  6.4km/h 6.0mph /  9.7km/h 48% 0.00in /  0mm 0.0 W/m2
02:07 71.4 °F /  21.9 °C 50.7 °F /  10.4 °C 29.77in /  1008hPa South 2.0mph /  3.2km/h 9.0mph /  14.5km/h 48% 0.00in /  0mm 0.0 W/m2
02:13 71.6 °F /  22 °C 50.9 °F /  10.5 °C 29.77in /  1008hPa ESE 0.9mph /  1.4km/h 9.0mph /  14.5km/h 48% 0.00in /  0mm 0.0 W/m2
02:19 71.8 °F /  22.1 °C 51.6 °F /  10.9 °C 29.76in /  1007.7hPa SSE 4.0mph /  6.4km/h 6.0mph /  9.7km/h 49% 0.00in /  0mm 0.0 W/m2
02:26 71.6 °F /  22 °C 52.0 °F /  11.1 °C 29.76in /  1007.7hPa SE 8.1mph /  13km/h 10.0mph /  16.1km/h 50% 0.00in /  0mm 0.0 W/m2
02:32 71.6 °F /  22 °C 52.5 °F /  11.4 °C 29.76in /  1007.7hPa SE 6.9mph /  11.1km/h 12.0mph /  19.3km/h 51% 0.00in /  0mm 0.0 W/m2
02:38 71.4 °F /  21.9 °C 52.3 °F /  11.3 °C 29.76in /  1007.7hPa ESE 6.9mph /  11.1km/h 9.0mph /  14.5km/h 51% 0.00in /  0mm 0.0 W/m2
02:44 71.4 °F /  21.9 °C 52.9 °F /  11.6 °C 29.76in /  1007.7hPa SE 0.9mph /  1.4km/h 6.0mph /  9.7km/h 52% 0.00in /  0mm 0.0 W/m2
02:50 71.2 °F /  21.8 °C 53.8 °F /  12.1 °C 29.75in /  1007.3hPa South 4.0mph /  6.4km/h 6.0mph /  9.7km/h 54% 0.00in /  0mm 0.0 W/m2
02:56 71.2 °F /  21.8 °C 54.7 °F /  12.6 °C 29.75in /  1007.3hPa ESE 2.0mph /  3.2km/h 10.0mph /  16.1km/h 56% 0.00in /  0mm 0.0 W/m2
03:02 71.1 °F /  21.7 °C 55.0 °F /  12.8 °C 29.75in /  1007.3hPa East 4.9mph /  7.9km/h 8.0mph /  12.9km/h 57% 0.00in /  0mm 0.0 W/m2
03:08 70.9 °F /  21.6 °C 55.8 °F /  13.2 °C 29.75in /  1007.3hPa ESE 2.9mph /  4.7km/h 10.0mph /  16.1km/h 59% 0.00in /  0mm 0.0 W/m2
03:14 70.5 °F /  21.4 °C 55.9 °F /  13.3 °C 29.74in /  1007hPa East 2.0mph /  3.2km/h 9.0mph /  14.5km/h 60% 0.00in /  0mm 0.0 W/m2
03:21 70.2 °F /  21.2 °C 56.1 °F /  13.4 °C 29.74in /  1007hPa SE 2.9mph /  4.7km/h 7.0mph /  11.3km/h 61% 0.00in /  0mm 0.0 W/m2
03:27 70.0 °F /  21.1 °C 56.3 °F /  13.5 °C 29.74in /  1007hPa ESE 2.9mph /  4.7km/h 4.0mph /  6.4km/h 62% 0.00in /  0mm 0.0 W/m2
03:33 69.4 °F /  20.8 °C 56.7 °F /  13.7 °C 29.74in /  1007hPa Calm   7.0mph /  11.3km/h 64% 0.00in /  0mm 0.0 W/m2
03:39 69.3 °F /  20.7 °C 57.4 °F /  14.1 °C 29.74in /  1007hPa SE 4.9mph /  7.9km/h 7.0mph /  11.3km/h 66% 0.00in /  0mm 0.0 W/m2
03:45 69.1 °F /  20.6 °C 57.7 °F /  14.3 °C 29.74in /  1007hPa ESE 0.9mph /  1.4km/h 8.0mph /  12.9km/h 67% 0.00in /  0mm 0.0 W/m2
03:51 68.7 °F /  20.4 °C 57.7 °F /  14.3 °C 29.73in /  1006.7hPa SE 4.0mph /  6.4km/h 8.0mph /  12.9km/h 68% 0.00in /  0mm 0.0 W/m2
03:57 68.5 °F /  20.3 °C 57.9 °F /  14.4 °C 29.73in /  1006.7hPa SE 0.9mph /  1.4km/h 7.0mph /  11.3km/h 69% 0.00in /  0mm 0.0 W/m2
04:03 68.4 °F /  20.2 °C 58.3 °F /  14.6 °C 29.73in /  1006.7hPa East 2.0mph /  3.2km/h 6.0mph /  9.7km/h 70% 0.00in /  0mm 0.0 W/m2
04:10 68.4 °F /  20.2 °C 58.3 °F /  14.6 °C 29.72in /  1006.3hPa Calm   10.0mph /  16.1km/h 70% 0.00in /  0mm 0.0 W/m2
04:16 68.2 °F /  20.1 °C 58.5 °F /  14.7 °C 29.72in /  1006.3hPa SE 2.9mph /  4.7km/h 5.0mph /  8km/h 71% 0.00in /  0mm 0.0 W/m2
04:22 68.2 °F /  20.1 °C 58.5 °F /  14.7 °C 29.72in /  1006.3hPa East 0.9mph /  1.4km/h 5.0mph /  8km/h 71% 0.00in /  0mm 0.0 W/m2
04:28 68.2 °F /  20.1 °C 58.5 °F /  14.7 °C 29.72in /  1006.3hPa ESE 2.0mph /  3.2km/h 9.0mph /  14.5km/h 71% 0.00in /  0mm 0.0 W/m2
04:34 68.0 °F /  20 °C 58.6 °F /  14.8 °C 29.72in /  1006.3hPa ENE 2.0mph /  3.2km/h 4.0mph /  6.4km/h 72% 0.00in /  0mm 0.0 W/m2
04:40 67.8 °F /  19.9 °C 58.5 °F /  14.7 °C 29.72in /  1006.3hPa ESE 6.0mph /  9.7km/h 8.0mph /  12.9km/h 72% 0.00in /  0mm 0.0 W/m2
04:46 67.8 °F /  19.9 °C 58.5 °F /  14.7 °C 29.72in /  1006.3hPa ESE 2.0mph /  3.2km/h 7.0mph /  11.3km/h 72% 0.00in /  0mm 0.0 W/m2
04:52 67.8 °F /  19.9 °C 58.1 °F /  14.5 °C 29.72in /  1006.3hPa East 2.0mph /  3.2km/h 5.0mph /  8km/h 71% 0.00in /  0mm 0.0 W/m2
04:58 67.8 °F /  19.9 °C 58.1 °F /  14.5 °C 29.72in /  1006.3hPa ESE 2.9mph /  4.7km/h 5.0mph /  8km/h 71% 0.00in /  0mm 0.0 W/m2
05:05 67.6 °F /  19.8 °C 57.6 °F /  14.2 °C 29.72in /  1006.3hPa SE 2.9mph /  4.7km/h 5.0mph /  8km/h 70% 0.00in /  0mm 0.0 W/m2
05:11 67.6 °F /  19.8 °C 57.0 °F /  13.9 °C 29.72in /  1006.3hPa Calm   5.0mph /  8km/h 69% 0.00in /  0mm 0.0 W/m2
05:17 67.6 °F /  19.8 °C 57.9 °F /  14.4 °C 29.72in /  1006.3hPa Calm   3.0mph /  4.8km/h 71% 0.00in /  0mm 0.0 W/m2
05:23 67.5 °F /  19.7 °C 57.7 °F /  14.3 °C 29.71in /  1006hPa Calm   2.0mph /  3.2km/h 71% 0.00in /  0mm 0.0 W/m2
05:29 67.5 °F /  19.7 °C 57.0 °F /  13.9 °C 29.72in /  1006.3hPa ENE 0.9mph /  1.4km/h 7.0mph /  11.3km/h 69% 0.00in /  0mm 0.0 W/m2
05:35 67.5 °F /  19.7 °C 55.8 °F /  13.2 °C 29.72in /  1006.3hPa ESE 4.9mph /  7.9km/h 11.0mph /  17.7km/h 66% 0.00in /  0mm 0.0 W/m2
05:41 67.8 °F /  19.9 °C 55.6 °F /  13.1 °C 29.72in /  1006.3hPa SE 4.9mph /  7.9km/h 7.0mph /  11.3km/h 65% 0.00in /  0mm 0.0 W/m2
05:47 68.4 °F /  20.2 °C 55.8 °F /  13.2 °C 29.72in /  1006.3hPa South 4.9mph /  7.9km/h 11.0mph /  17.7km/h 64% 0.00in /  0mm 0.0 W/m2
05:53 68.5 °F /  20.3 °C 55.9 °F /  13.3 °C 29.72in /  1006.3hPa ESE 4.9mph /  7.9km/h 7.0mph /  11.3km/h 64% 0.00in /  0mm 0.0 W/m2
05:59 68.5 °F /  20.3 °C 55.9 °F /  13.3 °C 29.72in /  1006.3hPa SE 2.0mph /  3.2km/h 8.0mph /  12.9km/h 64% 0.00in /  0mm 0.0 W/m2
06:05 68.5 °F /  20.3 °C 55.9 °F /  13.3 °C 29.72in /  1006.3hPa SE 2.0mph /  3.2km/h 6.0mph /  9.7km/h 64% 0.00in /  0mm 0.0 W/m2
06:12 68.5 °F /  20.3 °C 55.9 °F /  13.3 °C 29.73in /  1006.7hPa SE 2.9mph /  4.7km/h 5.0mph /  8km/h 64% 0.00in /  0mm 0.0 W/m2
06:18 68.5 °F /  20.3 °C 55.9 °F /  13.3 °C 29.73in /  1006.7hPa SSE 4.0mph /  6.4km/h 11.0mph /  17.7km/h 64% 0.00in /  0mm 0.0 W/m2
06:24 68.7 °F /  20.4 °C 56.1 °F /  13.4 °C 29.73in /  1006.7hPa SE 8.9mph /  14.3km/h 10.0mph /  16.1km/h 64% 0.00in /  0mm 0.0 W/m2
06:30 68.7 °F /  20.4 °C 56.1 °F /  13.4 °C 29.73in /  1006.7hPa SE 12.1mph /  19.5km/h 12.1mph /  19.5km/h 64% 0.00in /  0mm 0.0 W/m2
06:36 68.7 °F /  20.4 °C 56.1 °F /  13.4 °C 29.73in /  1006.7hPa ESE 4.0mph /  6.4km/h 10.0mph /  16.1km/h 64% 0.00in /  0mm 0.0 W/m2
06:42 68.7 °F /  20.4 °C 56.1 °F /  13.4 °C 29.73in /  1006.7hPa SE 2.0mph /  3.2km/h 5.0mph /  8km/h 64% 0.00in /  0mm 0.0 W/m2
06:48 68.7 °F /  20.4 °C 56.5 °F /  13.6 °C 29.74in /  1007hPa SE 4.0mph /  6.4km/h 12.0mph /  19.3km/h 65% 0.00in /  0mm 0.0 W/m2
06:54 68.7 °F /  20.4 °C 56.5 °F /  13.6 °C 29.74in /  1007hPa East 6.9mph /  11.1km/h 14.0mph /  22.5km/h 65% 0.00in /  0mm 5.0 W/m2
07:00 68.7 °F /  20.4 °C 56.8 °F /  13.8 °C 29.74in /  1007hPa ESE 2.0mph /  3.2km/h 7.0mph /  11.3km/h 66% 0.00in /  0mm 11.0 W/m2
07:06 68.5 °F /  20.3 °C 56.7 °F /  13.7 °C 29.74in /  1007hPa SE 4.0mph /  6.4km/h 11.0mph /  17.7km/h 66% 0.00in /  0mm 16.0 W/m2
07:12 68.5 °F /  20.3 °C 57.2 °F /  14 °C 29.74in /  1007hPa SE 4.9mph /  7.9km/h 6.0mph /  9.7km/h 67% 0.00in /  0mm 23.0 W/m2
07:18 68.5 °F /  20.3 °C 57.2 °F /  14 °C 29.74in /  1007hPa SSE 4.9mph /  7.9km/h 7.0mph /  11.3km/h 67% 0.00in /  0mm 30.0 W/m2
07:24 68.5 °F /  20.3 °C 57.2 °F /  14 °C 29.75in /  1007.3hPa East 2.9mph /  4.7km/h 13.0mph /  20.9km/h 67% 0.00in /  0mm 37.0 W/m2
07:30 68.5 °F /  20.3 °C 57.2 °F /  14 °C 29.75in /  1007.3hPa SE 4.9mph /  7.9km/h 11.0mph /  17.7km/h 67% 0.00in /  0mm 44.0 W/m2
07:36 68.5 °F /  20.3 °C 57.6 °F /  14.2 °C 29.75in /  1007.3hPa ESE 4.9mph /  7.9km/h 10.0mph /  16.1km/h 68% 0.00in /  0mm 51.0 W/m2
07:42 68.5 °F /  20.3 °C 57.6 °F /  14.2 °C 29.75in /  1007.3hPa East 2.9mph /  4.7km/h 10.0mph /  16.1km/h 68% 0.00in /  0mm 58.0 W/m2
07:48 68.7 °F /  20.4 °C 58.1 °F /  14.5 °C 29.75in /  1007.3hPa ESE 4.9mph /  7.9km/h 13.0mph /  20.9km/h 69% 0.00in /  0mm 65.0 W/m2
07:54 68.7 °F /  20.4 °C 57.7 °F /  14.3 °C 29.75in /  1007.3hPa East 6.0mph /  9.7km/h 12.0mph /  19.3km/h 68% 0.00in /  0mm 69.0 W/m2
08:00 68.9 °F /  20.5 °C 58.3 °F /  14.6 °C 29.75in /  1007.3hPa ESE 6.0mph /  9.7km/h 10.0mph /  16.1km/h 69% 0.00in /  0mm 74.0 W/m2
08:06 69.1 °F /  20.6 °C 58.5 °F /  14.7 °C 29.76in /  1007.7hPa SE 4.9mph /  7.9km/h 17.0mph /  27.4km/h 69% 0.00in /  0mm 81.0 W/m2
08:12 69.3 °F /  20.7 °C 58.6 °F /  14.8 °C 29.76in /  1007.7hPa ESE 2.0mph /  3.2km/h 10.0mph /  16.1km/h 69% 0.00in /  0mm 84.0 W/m2
08:18 69.4 °F /  20.8 °C 58.5 °F /  14.7 °C 29.76in /  1007.7hPa ESE 0.9mph /  1.4km/h 9.0mph /  14.5km/h 68% 0.00in /  0mm 90.0 W/m2
08:24 69.6 °F /  20.9 °C 58.6 °F /  14.8 °C 29.76in /  1007.7hPa SE 11.0mph /  17.7km/h 14.0mph /  22.5km/h 68% 0.00in /  0mm 88.0 W/m2
08:30 70.0 °F /  21.1 °C 58.5 °F /  14.7 °C 29.76in /  1007.7hPa ESE 4.9mph /  7.9km/h 11.0mph /  17.7km/h 67% 0.00in /  0mm 90.0 W/m2
08:36 70.2 °F /  21.2 °C 58.3 °F /  14.6 °C 29.76in /  1007.7hPa ESE 2.9mph /  4.7km/h 13.0mph /  20.9km/h 66% 0.00in /  0mm 90.0 W/m2
08:42 70.3 °F /  21.3 °C 58.1 °F /  14.5 °C 29.76in /  1007.7hPa East 8.9mph /  14.3km/h 14.0mph /  22.5km/h 65% 0.00in /  0mm 91.0 W/m2
08:48 70.3 °F /  21.3 °C 58.1 °F /  14.5 °C 29.76in /  1007.7hPa ESE 2.9mph /  4.7km/h 14.0mph /  22.5km/h 65% 0.00in /  0mm 100.0 W/m2
08:54 70.5 °F /  21.4 °C 58.6 °F /  14.8 °C 29.76in /  1007.7hPa ESE 4.0mph /  6.4km/h 20.0mph /  32.2km/h 66% 0.00in /  0mm 125.0 W/m2
09:00 70.5 °F /  21.4 °C 58.6 °F /  14.8 °C 29.76in /  1007.7hPa East 6.0mph /  9.7km/h 11.0mph /  17.7km/h 66% 0.00in /  0mm 417.0 W/m2
09:06 71.1 °F /  21.7 °C 59.2 °F /  15.1 °C 29.76in /  1007.7hPa ESE 6.0mph /  9.7km/h 10.0mph /  16.1km/h 66% 0.00in /  0mm 478.0 W/m2
09:12 71.6 °F /  22 °C 58.8 °F /  14.9 °C 29.76in /  1007.7hPa South 4.0mph /  6.4km/h 19.0mph /  30.6km/h 64% 0.00in /  0mm 506.0 W/m2
09:18 72.1 °F /  22.3 °C 58.8 °F /  14.9 °C 29.76in /  1007.7hPa ENE 4.9mph /  7.9km/h 15.0mph /  24.1km/h 63% 0.00in /  0mm 501.0 W/m2
09:24 72.3 °F /  22.4 °C 59.0 °F /  15 °C 29.76in /  1007.7hPa ENE 8.1mph /  13km/h 8.1mph /  13km/h 63% 0.00in /  0mm 443.0 W/m2
09:30 72.7 °F /  22.6 °C 58.5 °F /  14.7 °C 29.77in /  1008hPa ESE 10.1mph /  16.3km/h 14.0mph /  22.5km/h 61% 0.00in /  0mm 403.0 W/m2
09:36 72.7 °F /  22.6 °C 57.9 °F /  14.4 °C 29.76in /  1007.7hPa SE 6.9mph /  11.1km/h 21.0mph /  33.8km/h 60% 0.00in /  0mm 285.0 W/m2
09:42 72.7 °F /  22.6 °C 58.5 °F /  14.7 °C 29.76in /  1007.7hPa East 4.9mph /  7.9km/h 9.0mph /  14.5km/h 61% 0.00in /  0mm 504.0 W/m2
09:48 73.0 °F /  22.8 °C 56.8 °F /  13.8 °C 29.77in /  1008hPa ESE 2.9mph /  4.7km/h 16.0mph /  25.7km/h 57% 0.00in /  0mm 327.0 W/m2
09:54 73.0 °F /  22.8 °C 56.8 °F /  13.8 °C 29.76in /  1007.7hPa ESE 8.1mph /  13km/h 17.0mph /  27.4km/h 57% 0.00in /  0mm 584.0 W/m2
10:00 73.6 °F /  23.1 °C 56.8 °F /  13.8 °C 29.76in /  1007.7hPa SE 6.0mph /  9.7km/h 20.0mph /  32.2km/h 56% 0.00in /  0mm 601.0 W/m2
10:06 74.1 °F /  23.4 °C 56.8 °F /  13.8 °C 29.76in /  1007.7hPa East 6.9mph /  11.1km/h 14.0mph /  22.5km/h 55% 0.00in /  0mm 615.0 W/m2
10:12 74.7 °F /  23.7 °C 55.9 °F /  13.3 °C 29.76in /  1007.7hPa ESE 8.9mph /  14.3km/h 19.0mph /  30.6km/h 52% 0.00in /  0mm 668.0 W/m2
10:18 74.8 °F /  23.8 °C 55.6 °F /  13.1 °C 29.76in /  1007.7hPa ESE 10.1mph /  16.3km/h 16.0mph /  25.7km/h 51% 0.00in /  0mm 782.0 W/m2
10:24 75.6 °F /  24.2 °C 55.6 °F /  13.1 °C 29.76in /  1007.7hPa ESE 6.0mph /  9.7km/h 13.0mph /  20.9km/h 50% 0.00in /  0mm 777.0 W/m2
10:30 76.3 °F /  24.6 °C 55.2 °F /  12.9 °C 29.76in /  1007.7hPa ESE 12.1mph /  19.5km/h 19.0mph /  30.6km/h 48% 0.00in /  0mm 624.0 W/m2
10:38 76.5 °F /  24.7 °C 54.1 °F /  12.3 °C 29.76in /  1007.7hPa SE 6.9mph /  11.1km/h 13.0mph /  20.9km/h 46% 0.00in /  0mm 826.0 W/m2
10:44 77.0 °F /  25 °C 54.7 °F /  12.6 °C 29.76in /  1007.7hPa SE 16.1mph /  25.9km/h 17.0mph /  27.4km/h 46% 0.00in /  0mm 858.0 W/m2
10:50 77.4 °F /  25.2 °C 54.3 °F /  12.4 °C 29.76in /  1007.7hPa ESE 6.0mph /  9.7km/h 13.0mph /  20.9km/h 45% 0.00in /  0mm 879.0 W/m2
10:56 77.9 °F /  25.5 °C 54.9 °F /  12.7 °C 29.76in /  1007.7hPa SE 2.9mph /  4.7km/h 13.0mph /  20.9km/h 45% 0.00in /  0mm 888.0 W/m2
11:02 78.6 °F /  25.9 °C 54.3 °F /  12.4 °C 29.76in /  1007.7hPa SE 8.9mph /  14.3km/h 14.0mph /  22.5km/h 43% 0.00in /  0mm 895.0 W/m2
11:08 78.8 °F /  26 °C 55.0 °F /  12.8 °C 29.75in /  1007.3hPa ESE 8.1mph /  13km/h 15.0mph /  24.1km/h 44% 0.00in /  0mm 914.0 W/m2
11:14 79.0 °F /  26.1 °C 54.0 °F /  12.2 °C 29.75in /  1007.3hPa SE 8.9mph /  14.3km/h 12.0mph /  19.3km/h 42% 0.00in /  0mm 148.0 W/m2
11:20 78.6 °F /  25.9 °C 54.3 °F /  12.4 °C 29.75in /  1007.3hPa ESE 6.9mph /  11.1km/h 13.0mph /  20.9km/h 43% 0.00in /  0mm 970.0 W/m2
11:26 79.0 °F /  26.1 °C 54.0 °F /  12.2 °C 29.75in /  1007.3hPa SSE 8.1mph /  13km/h 14.0mph /  22.5km/h 42% 0.00in /  0mm 1005.0 W/m2
11:32 79.2 °F /  26.2 °C 53.4 °F /  11.9 °C 29.75in /  1007.3hPa ENE 6.0mph /  9.7km/h 14.0mph /  22.5km/h 41% 0.00in /  0mm 983.0 W/m2
11:38 79.3 °F /  26.3 °C 54.3 °F /  12.4 °C 29.75in /  1007.3hPa SSE 4.9mph /  7.9km/h 14.0mph /  22.5km/h 42% 0.00in /  0mm 1023.0 W/m2
11:44 79.2 °F /  26.2 °C 53.4 °F /  11.9 °C 29.75in /  1007.3hPa SE 8.1mph /  13km/h 16.0mph /  25.7km/h 41% 0.00in /  0mm 1081.0 W/m2
11:50 79.2 °F /  26.2 °C 54.1 °F /  12.3 °C 29.74in /  1007hPa ESE 4.0mph /  6.4km/h 11.0mph /  17.7km/h 42% 0.00in /  0mm 1048.0 W/m2
11:56 79.5 °F /  26.4 °C 55.0 °F /  12.8 °C 29.74in /  1007hPa ESE 6.0mph /  9.7km/h 14.0mph /  22.5km/h 43% 0.00in /  0mm 1069.0 W/m2
12:02 79.9 °F /  26.6 °C 54.7 °F /  12.6 °C 29.74in /  1007hPa ESE 8.1mph /  13km/h 12.0mph /  19.3km/h 42% 0.00in /  0mm 1245.0 W/m2
12:08 80.1 °F /  26.7 °C 55.6 °F /  13.1 °C 29.74in /  1007hPa SE 4.9mph /  7.9km/h 12.0mph /  19.3km/h 43% 0.00in /  0mm 243.0 W/m2
12:14 79.7 °F /  26.5 °C 55.2 °F /  12.9 °C 29.74in /  1007hPa SE 11.0mph /  17.7km/h 16.0mph /  25.7km/h 43% 0.00in /  0mm 1157.0 W/m2
12:20 79.9 °F /  26.6 °C 55.4 °F /  13 °C 29.74in /  1007hPa SSE 6.0mph /  9.7km/h 12.0mph /  19.3km/h 43% 0.00in /  0mm 1141.0 W/m2
12:26 80.2 °F /  26.8 °C 56.3 °F /  13.5 °C 29.73in /  1006.7hPa SE 4.0mph /  6.4km/h 7.0mph /  11.3km/h 44% 0.00in /  0mm 229.0 W/m2
12:32 80.2 °F /  26.8 °C 55.0 °F /  12.8 °C 29.73in /  1006.7hPa ESE 12.1mph /  19.5km/h 16.0mph /  25.7km/h 42% 0.00in /  0mm 1187.0 W/m2
12:38 80.6 °F /  27 °C 56.1 °F /  13.4 °C 29.73in /  1006.7hPa ESE 4.0mph /  6.4km/h 12.0mph /  19.3km/h 43% 0.00in /  0mm 643.0 W/m2
12:44 80.4 °F /  26.9 °C 55.9 °F /  13.3 °C 29.73in /  1006.7hPa SSE 10.1mph /  16.3km/h 16.0mph /  25.7km/h 43% 0.00in /  0mm 285.0 W/m2
12:50 80.2 °F /  26.8 °C 55.0 °F /  12.8 °C 29.73in /  1006.7hPa SSE 2.0mph /  3.2km/h 10.0mph /  16.1km/h 42% 0.00in /  0mm 429.0 W/m2
12:56 80.8 °F /  27.1 °C 55.6 °F /  13.1 °C 29.72in /  1006.3hPa SE 6.0mph /  9.7km/h 13.0mph /  20.9km/h 42% 0.00in /  0mm 1144.0 W/m2
13:02 81.7 °F /  27.6 °C 55.8 °F /  13.2 °C 29.72in /  1006.3hPa SE 0.9mph /  1.4km/h 11.0mph /  17.7km/h 41% 0.00in /  0mm 1160.0 W/m2
13:08 81.9 °F /  27.7 °C 55.2 °F /  12.9 °C 29.71in /  1006hPa East 0.9mph /  1.4km/h 8.0mph /  12.9km/h 40% 0.00in /  0mm 1081.0 W/m2
13:14 82.6 °F /  28.1 °C 55.8 °F /  13.2 °C 29.71in /  1006hPa SSE 10.1mph /  16.3km/h 13.0mph /  20.9km/h 40% 0.00in /  0mm 1197.0 W/m2
13:20 82.8 °F /  28.2 °C 54.5 °F /  12.5 °C 29.71in /  1006hPa SE 4.0mph /  6.4km/h 13.0mph /  20.9km/h 38% 0.00in /  0mm 243.0 W/m2
13:26 81.9 °F /  27.7 °C 54.5 °F /  12.5 °C 29.70in /  1005.6hPa East 6.0mph /  9.7km/h 11.0mph /  17.7km/h 39% 0.00in /  0mm 362.0 W/m2
13:32 81.3 °F /  27.4 °C 55.4 °F /  13 °C 29.70in /  1005.6hPa SE 6.9mph /  11.1km/h 9.0mph /  14.5km/h 41% 0.00in /  0mm 540.0 W/m2
13:38 81.3 °F /  27.4 °C 54.7 °F /  12.6 °C 29.70in /  1005.6hPa SSE 6.9mph /  11.1km/h 16.0mph /  25.7km/h 40% 0.00in /  0mm 573.0 W/m2
13:44 81.1 °F /  27.3 °C 55.9 °F /  13.3 °C 29.70in /  1005.6hPa ESE 4.0mph /  6.4km/h 13.0mph /  20.9km/h 42% 0.00in /  0mm 334.0 W/m2
13:50 80.8 °F /  27.1 °C 55.6 °F /  13.1 °C 29.70in /  1005.6hPa East 0.9mph /  1.4km/h 8.0mph /  12.9km/h 42% 0.00in /  0mm 364.0 W/m2
13:57 80.8 °F /  27.1 °C 55.6 °F /  13.1 °C 29.70in /  1005.6hPa ESE 2.9mph /  4.7km/h 9.0mph /  14.5km/h 42% 0.00in /  0mm 429.0 W/m2
14:02 80.8 °F /  27.1 °C 54.1 °F /  12.3 °C 29.70in /  1005.6hPa East 6.9mph /  11.1km/h 14.0mph /  22.5km/h 40% 0.00in /  0mm 142.0 W/m2
14:08 79.5 °F /  26.4 °C 58.1 °F /  14.5 °C 29.70in /  1005.6hPa NE 4.0mph /  6.4km/h 13.0mph /  20.9km/h 48% 0.00in /  0mm 236.0 W/m2
14:14 78.1 °F /  25.6 °C 57.4 °F /  14.1 °C 29.70in /  1005.6hPa ESE 6.0mph /  9.7km/h 12.0mph /  19.3km/h 49% 0.00in /  0mm 436.0 W/m2
14:20 77.2 °F /  25.1 °C 58.6 °F /  14.8 °C 29.70in /  1005.6hPa SSE 4.9mph /  7.9km/h 15.0mph /  24.1km/h 53% 0.00in /  0mm 636.0 W/m2
14:26 76.5 °F /  24.7 °C 55.9 °F /  13.3 °C 29.70in /  1005.6hPa ESE 15.0mph /  24.1km/h 21.0mph /  33.8km/h 49% 0.00in /  0mm 817.0 W/m2
14:32 76.3 °F /  24.6 °C 57.4 °F /  14.1 °C 29.70in /  1005.6hPa SE 6.9mph /  11.1km/h 13.0mph /  20.9km/h 52% 0.00in /  0mm 461.0 W/m2
14:38 75.9 °F /  24.4 °C 56.5 °F /  13.6 °C 29.70in /  1005.6hPa East 10.1mph /  16.3km/h 14.0mph /  22.5km/h 51% 0.00in /  0mm 559.0 W/m2
14:44 75.9 °F /  24.4 °C 55.9 °F /  13.3 °C 29.70in /  1005.6hPa East 6.0mph /  9.7km/h 13.0mph /  20.9km/h 50% 0.00in /  0mm 503.0 W/m2
14:50 75.7 °F /  24.3 °C 56.8 °F /  13.8 °C 29.69in /  1005.3hPa SE 4.9mph /  7.9km/h 10.0mph /  16.1km/h 52% 0.00in /  0mm 464.0 W/m2
14:56 75.9 °F /  24.4 °C 57.0 °F /  13.9 °C 29.69in /  1005.3hPa SSE 2.9mph /  4.7km/h 10.0mph /  16.1km/h 52% 0.00in /  0mm 527.0 W/m2
15:02 76.5 °F /  24.7 °C 58.6 °F /  14.8 °C 29.70in /  1005.6hPa SSE 6.0mph /  9.7km/h 11.0mph /  17.7km/h 54% 0.00in /  0mm 679.0 W/m2
15:09 77.2 °F /  25.1 °C 59.7 °F /  15.4 °C 29.69in /  1005.3hPa ESE 4.9mph /  7.9km/h 9.0mph /  14.5km/h 55% 0.00in /  0mm 541.0 W/m2
15:14 77.7 °F /  25.4 °C 58.6 °F /  14.8 °C 29.69in /  1005.3hPa ENE 10.1mph /  16.3km/h 10.1mph /  16.3km/h 52% 0.00in /  0mm 1093.0 W/m2
15:24 79.0 °F /  26.1 °C 59.9 °F /  15.5 °C 29.68in /  1005hPa SSE 0.9mph /  1.4km/h 12.0mph /  19.3km/h 52% 0.00in /  0mm 742.0 W/m2
15:30 79.2 °F /  26.2 °C 60.1 °F /  15.6 °C 29.67in /  1004.6hPa ESE 6.0mph /  9.7km/h 10.0mph /  16.1km/h 52% 0.00in /  0mm 390.0 W/m2
15:40 79.2 °F /  26.2 °C 59.5 °F /  15.3 °C 29.67in /  1004.6hPa SSE 6.0mph /  9.7km/h 9.0mph /  14.5km/h 51% 0.00in /  0mm 434.0 W/m2
15:46 79.0 °F /  26.1 °C 60.4 °F /  15.8 °C 29.67in /  1004.6hPa ESE 4.9mph /  7.9km/h 9.0mph /  14.5km/h 53% 0.00in /  0mm 378.0 W/m2
15:52 78.6 °F /  25.9 °C 57.2 °F /  14 °C 29.66in /  1004.3hPa SE 8.9mph /  14.3km/h 14.0mph /  22.5km/h 48% 0.00in /  0mm 390.0 W/m2
15:58 78.3 °F /  25.7 °C 58.6 °F /  14.8 °C 29.66in /  1004.3hPa SE 6.0mph /  9.7km/h 8.0mph /  12.9km/h 51% 0.00in /  0mm 492.0 W/m2
16:04 79.0 °F /  26.1 °C 58.8 °F /  14.9 °C 29.67in /  1004.6hPa SW 2.0mph /  3.2km/h 12.0mph /  19.3km/h 50% 0.00in /  0mm 772.0 W/m2
16:10 78.8 °F /  26 °C 58.6 °F /  14.8 °C 29.66in /  1004.3hPa SE 4.9mph /  7.9km/h 8.0mph /  12.9km/h 50% 0.00in /  0mm 343.0 W/m2
16:16 78.8 °F /  26 °C 59.2 °F /  15.1 °C 29.66in /  1004.3hPa ENE 4.9mph /  7.9km/h 11.0mph /  17.7km/h 51% 0.00in /  0mm 359.0 W/m2
16:22 79.0 °F /  26.1 °C 58.8 °F /  14.9 °C 29.66in /  1004.3hPa SSE 2.0mph /  3.2km/h 7.0mph /  11.3km/h 50% 0.00in /  0mm 359.0 W/m2
16:28 79.0 °F /  26.1 °C 59.4 °F /  15.2 °C 29.66in /  1004.3hPa SE 4.0mph /  6.4km/h 7.0mph /  11.3km/h 51% 0.00in /  0mm 341.0 W/m2
16:34 78.6 °F /  25.9 °C 59.5 °F /  15.3 °C 29.66in /  1004.3hPa South 8.1mph /  13km/h 9.0mph /  14.5km/h 52% 0.00in /  0mm 306.0 W/m2
16:40 78.4 °F /  25.8 °C 59.4 °F /  15.2 °C 29.66in /  1004.3hPa SE 11.0mph /  17.7km/h 11.0mph /  17.7km/h 52% 0.00in /  0mm 661.0 W/m2
16:47 78.4 °F /  25.8 °C 58.3 °F /  14.6 °C 29.66in /  1004.3hPa SE 8.9mph /  14.3km/h 12.0mph /  19.3km/h 50% 0.00in /  0mm 334.0 W/m2
16:53 78.1 °F /  25.6 °C 57.4 °F /  14.1 °C 29.66in /  1004.3hPa SE 4.0mph /  6.4km/h 13.0mph /  20.9km/h 49% 0.00in /  0mm 237.0 W/m2
16:59 77.5 °F /  25.3 °C 56.8 °F /  13.8 °C 29.66in /  1004.3hPa SE 8.1mph /  13km/h 10.0mph /  16.1km/h 49% 0.00in /  0mm 200.0 W/m2
17:05 77.2 °F /  25.1 °C 57.0 °F /  13.9 °C 29.66in /  1004.3hPa SE 6.0mph /  9.7km/h 13.0mph /  20.9km/h 50% 0.00in /  0mm 178.0 W/m2
17:11 76.6 °F /  24.8 °C 57.2 °F /  14 °C 29.66in /  1004.3hPa SE 4.9mph /  7.9km/h 14.0mph /  22.5km/h 51% 0.00in /  0mm 158.0 W/m2
17:17 76.3 °F /  24.6 °C 57.4 °F /  14.1 °C 29.66in /  1004.3hPa SE 6.0mph /  9.7km/h 10.0mph /  16.1km/h 52% 0.00in /  0mm 149.0 W/m2
17:23 75.7 °F /  24.3 °C 56.8 °F /  13.8 °C 29.66in /  1004.3hPa East 4.0mph /  6.4km/h 13.0mph /  20.9km/h 52% 0.00in /  0mm 142.0 W/m2
17:29 75.4 °F /  24.1 °C 56.5 °F /  13.6 °C 29.66in /  1004.3hPa SSE 4.0mph /  6.4km/h 11.0mph /  17.7km/h 52% 0.00in /  0mm 125.0 W/m2
17:35 75.2 °F /  24 °C 56.8 °F /  13.8 °C 29.66in /  1004.3hPa ESE 2.9mph /  4.7km/h 14.0mph /  22.5km/h 53% 0.00in /  0mm 104.0 W/m2
17:41 75.0 °F /  23.9 °C 56.7 °F /  13.7 °C 29.67in /  1004.6hPa SE 8.9mph /  14.3km/h 10.0mph /  16.1km/h 53% 0.00in /  0mm 86.0 W/m2
17:47 74.7 °F /  23.7 °C 56.5 °F /  13.6 °C 29.66in /  1004.3hPa SE 10.1mph /  16.3km/h 16.0mph /  25.7km/h 53% 0.00in /  0mm 72.0 W/m2
17:53 74.3 °F /  23.5 °C 56.7 °F /  13.7 °C 29.67in /  1004.6hPa SSE 6.9mph /  11.1km/h 10.0mph /  16.1km/h 54% 0.00in /  0mm 62.0 W/m2
17:59 74.1 °F /  23.4 °C 56.5 °F /  13.6 °C 29.66in /  1004.3hPa ESE 6.9mph /  11.1km/h 10.0mph /  16.1km/h 54% 0.00in /  0mm 47.0 W/m2
18:05 73.8 °F /  23.2 °C 56.1 °F /  13.4 °C 29.66in /  1004.3hPa SE 4.9mph /  7.9km/h 10.0mph /  16.1km/h 54% 0.00in /  0mm 33.0 W/m2
18:11 73.8 °F /  23.2 °C 56.1 °F /  13.4 °C 29.66in /  1004.3hPa SSW 2.0mph /  3.2km/h 6.0mph /  9.7km/h 54% 0.00in /  0mm 26.0 W/m2
18:17 73.6 °F /  23.1 °C 55.9 °F /  13.3 °C 29.66in /  1004.3hPa Calm   2.0mph /  3.2km/h 54% 0.00in /  0mm 21.0 W/m2
18:23 73.4 °F /  23 °C 55.8 °F /  13.2 °C 29.66in /  1004.3hPa South 0.9mph /  1.4km/h 8.0mph /  12.9km/h 54% 0.00in /  0mm 21.0 W/m2
18:29 73.2 °F /  22.9 °C 56.1 °F /  13.4 °C 29.66in /  1004.3hPa NNE 2.0mph /  3.2km/h 2.0mph /  3.2km/h 55% 0.00in /  0mm 23.0 W/m2
18:35 73.2 °F /  22.9 °C 56.1 °F /  13.4 °C 29.66in /  1004.3hPa ENE 0.9mph /  1.4km/h 1.0mph /  1.6km/h 55% 0.00in /  0mm 19.0 W/m2
18:41 73.0 °F /  22.8 °C 55.4 °F /  13 °C 29.66in /  1004.3hPa SE 2.9mph /  4.7km/h 8.0mph /  12.9km/h 54% 0.00in /  0mm 21.0 W/m2
18:48 73.0 °F /  22.8 °C 54.9 °F /  12.7 °C 29.66in /  1004.3hPa Calm   4.0mph /  6.4km/h 53% 0.00in /  0mm 19.0 W/m2
18:54 73.0 °F /  22.8 °C 54.9 °F /  12.7 °C 29.66in /  1004.3hPa Calm   6.0mph /  9.7km/h 53% 0.00in /  0mm 18.0 W/m2
19:00 73.2 °F /  22.9 °C 55.0 °F /  12.8 °C 29.66in /  1004.3hPa SE 2.0mph /  3.2km/h 2.0mph /  3.2km/h 53% 0.00in /  0mm 16.0 W/m2
19:06 73.2 °F /  22.9 °C 55.0 °F /  12.8 °C 29.67in /  1004.6hPa Calm   2.0mph /  3.2km/h 53% 0.00in /  0mm 14.0 W/m2
19:12 73.2 °F /  22.9 °C 55.0 °F /  12.8 °C 29.67in /  1004.6hPa South 0.9mph /  1.4km/h 4.0mph /  6.4km/h 53% 0.00in /  0mm 7.0 W/m2
19:18 73.0 °F /  22.8 °C 55.4 °F /  13 °C 29.67in /  1004.6hPa Calm   4.0mph /  6.4km/h 54% 0.00in /  0mm 0.0 W/m2
19:25 73.0 °F /  22.8 °C 54.9 °F /  12.7 °C 29.67in /  1004.6hPa Calm   1.0mph /  1.6km/h 53% 0.00in /  0mm 0.0 W/m2
19:31 73.0 °F /  22.8 °C 55.4 °F /  13 °C 29.67in /  1004.6hPa Calm   3.0mph /  4.8km/h 54% 0.00in /  0mm 0.0 W/m2
19:37 73.0 °F /  22.8 °C 55.9 °F /  13.3 °C 29.68in /  1005hPa Calm   2.0mph /  3.2km/h 55% 0.00in /  0mm 0.0 W/m2
19:43 72.9 °F /  22.7 °C 55.2 °F /  12.9 °C 29.68in /  1005hPa Calm   2.0mph /  3.2km/h 54% 0.00in /  0mm 0.0 W/m2
19:49 72.9 °F /  22.7 °C 54.7 °F /  12.6 °C 29.68in /  1005hPa Calm   3.0mph /  4.8km/h 53% 0.00in /  0mm 0.0 W/m2
19:55 72.7 °F /  22.6 °C 55.0 °F /  12.8 °C 29.68in /  1005hPa SSE 0.9mph /  1.4km/h 3.0mph /  4.8km/h 54% 0.00in /  0mm 0.0 W/m2
20:01 72.7 °F /  22.6 °C 55.0 °F /  12.8 °C 29.69in /  1005.3hPa NNE 2.0mph /  3.2km/h 6.0mph /  9.7km/h 54% 0.00in /  0mm 0.0 W/m2
20:07 72.7 °F /  22.6 °C 55.0 °F /  12.8 °C 29.69in /  1005.3hPa ENE 2.9mph /  4.7km/h 8.0mph /  12.9km/h 54% 0.00in /  0mm 0.0 W/m2
20:13 72.5 °F /  22.5 °C 54.9 °F /  12.7 °C 29.69in /  1005.3hPa SE 4.0mph /  6.4km/h 9.0mph /  14.5km/h 54% 0.00in /  0mm 0.0 W/m2
20:19 72.5 °F /  22.5 °C 54.9 °F /  12.7 °C 29.69in /  1005.3hPa SE 2.9mph /  4.7km/h 7.0mph /  11.3km/h 54% 0.00in /  0mm 0.0 W/m2
20:25 72.5 °F /  22.5 °C 54.9 °F /  12.7 °C 29.69in /  1005.3hPa SE 2.9mph /  4.7km/h 9.0mph /  14.5km/h 54% 0.00in /  0mm 0.0 W/m2
20:31 72.5 °F /  22.5 °C 54.3 °F /  12.4 °C 29.69in /  1005.3hPa SE 2.0mph /  3.2km/h 10.0mph /  16.1km/h 53% 0.00in /  0mm 0.0 W/m2
20:37 72.5 °F /  22.5 °C 54.3 °F /  12.4 °C 29.69in /  1005.3hPa SE 6.0mph /  9.7km/h 8.0mph /  12.9km/h 53% 0.00in /  0mm 0.0 W/m2
20:43 72.5 °F /  22.5 °C 54.3 °F /  12.4 °C 29.69in /  1005.3hPa ESE 0.9mph /  1.4km/h 6.0mph /  9.7km/h 53% 0.00in /  0mm 0.0 W/m2
20:49 72.5 °F /  22.5 °C 54.3 °F /  12.4 °C 29.70in /  1005.6hPa SE 2.9mph /  4.7km/h 5.0mph /  8km/h 53% 0.00in /  0mm 0.0 W/m2
20:55 72.7 °F /  22.6 °C 54.5 °F /  12.5 °C 29.70in /  1005.6hPa SSE 2.9mph /  4.7km/h 6.0mph /  9.7km/h 53% 0.00in /  0mm 0.0 W/m2
21:01 72.7 °F /  22.6 °C 54.5 °F /  12.5 °C 29.70in /  1005.6hPa SE 0.9mph /  1.4km/h 4.0mph /  6.4km/h 53% 0.00in /  0mm 0.0 W/m2
21:08 72.7 °F /  22.6 °C 54.5 °F /  12.5 °C 29.70in /  1005.6hPa SE 0.9mph /  1.4km/h 3.0mph /  4.8km/h 53% 0.00in /  0mm 0.0 W/m2
21:14 72.7 °F /  22.6 °C 54.0 °F /  12.2 °C 29.70in /  1005.6hPa Calm   4.0mph /  6.4km/h 52% 0.00in /  0mm 0.0 W/m2
21:20 72.7 °F /  22.6 °C 54.5 °F /  12.5 °C 29.70in /  1005.6hPa SE 2.9mph /  4.7km/h 5.0mph /  8km/h 53% 0.00in /  0mm 0.0 W/m2
21:26 72.9 °F /  22.7 °C 54.7 °F /  12.6 °C 29.71in /  1006hPa ESE 2.0mph /  3.2km/h 5.0mph /  8km/h 53% 0.00in /  0mm 0.0 W/m2
21:32 72.9 °F /  22.7 °C 55.2 °F /  12.9 °C 29.71in /  1006hPa ESE 0.9mph /  1.4km/h 3.0mph /  4.8km/h 54% 0.00in /  0mm 0.0 W/m2
21:38 72.9 °F /  22.7 °C 55.2 °F /  12.9 °C 29.71in /  1006hPa SE 2.0mph /  3.2km/h 7.0mph /  11.3km/h 54% 0.00in /  0mm 0.0 W/m2
21:44 72.9 °F /  22.7 °C 55.2 °F /  12.9 °C 29.72in /  1006.3hPa ESE 0.9mph /  1.4km/h 5.0mph /  8km/h 54% 0.00in /  0mm 0.0 W/m2
21:50 72.9 °F /  22.7 °C 55.2 °F /  12.9 °C 29.72in /  1006.3hPa South 2.0mph /  3.2km/h 7.0mph /  11.3km/h 54% 0.00in /  0mm 0.0 W/m2
21:56 72.9 °F /  22.7 °C 55.8 °F /  13.2 °C 29.72in /  1006.3hPa NE 0.9mph /  1.4km/h 9.0mph /  14.5km/h 55% 0.00in /  0mm 0.0 W/m2
22:02 72.9 °F /  22.7 °C 55.8 °F /  13.2 °C 29.72in /  1006.3hPa East 4.9mph /  7.9km/h 6.0mph /  9.7km/h 55% 0.00in /  0mm 0.0 W/m2
22:08 72.9 °F /  22.7 °C 56.3 °F /  13.5 °C 29.72in /  1006.3hPa ESE 2.0mph /  3.2km/h 6.0mph /  9.7km/h 56% 0.00in /  0mm 0.0 W/m2
22:14 72.7 °F /  22.6 °C 56.1 °F /  13.4 °C 29.72in /  1006.3hPa SE 2.9mph /  4.7km/h 12.0mph /  19.3km/h 56% 0.00in /  0mm 0.0 W/m2
22:20 72.7 °F /  22.6 °C 56.5 °F /  13.6 °C 29.72in /  1006.3hPa ESE 0.9mph /  1.4km/h 8.0mph /  12.9km/h 57% 0.00in /  0mm 0.0 W/m2
22:26 72.3 °F /  22.4 °C 56.7 °F /  13.7 °C 29.72in /  1006.3hPa East 2.9mph /  4.7km/h 5.0mph /  8km/h 58% 0.00in /  0mm 0.0 W/m2
22:32 72.1 °F /  22.3 °C 57.0 °F /  13.9 °C 29.72in /  1006.3hPa Calm   11.0mph /  17.7km/h 59% 0.00in /  0mm 0.0 W/m2
22:39 71.8 °F /  22.1 °C 57.2 °F /  14 °C 29.72in /  1006.3hPa East 2.0mph /  3.2km/h 5.0mph /  8km/h 60% 0.00in /  0mm 0.0 W/m2
22:45 71.4 °F /  21.9 °C 57.2 °F /  14 °C 29.72in /  1006.3hPa ENE 2.9mph /  4.7km/h 4.0mph /  6.4km/h 61% 0.00in /  0mm 0.0 W/m2
22:51 71.1 °F /  21.7 °C 57.4 °F /  14.1 °C 29.72in /  1006.3hPa East 2.0mph /  3.2km/h 4.0mph /  6.4km/h 62% 0.00in /  0mm 0.0 W/m2
22:57 70.9 °F /  21.6 °C 57.7 °F /  14.3 °C 29.72in /  1006.3hPa East 2.0mph /  3.2km/h 4.0mph /  6.4km/h 63% 0.00in /  0mm 0.0 W/m2
23:03 70.5 °F /  21.4 °C 57.7 °F /  14.3 °C 29.72in /  1006.3hPa NE 0.9mph /  1.4km/h 3.0mph /  4.8km/h 64% 0.00in /  0mm 0.0 W/m2
23:09 70.3 °F /  21.3 °C 58.1 °F /  14.5 °C 29.72in /  1006.3hPa Calm   2.0mph /  3.2km/h 65% 0.00in /  0mm 0.0 W/m2
23:15 70.2 °F /  21.2 °C 58.3 °F /  14.6 °C 29.72in /  1006.3hPa Calm   1.0mph /  1.6km/h 66% 0.00in /  0mm 0.0 W/m2
23:19 70.2 °F /  21.2 °C 58.3 °F /  14.6 °C 29.72in /  1006.3hPa East 0.9mph /  1.4km/h 2.0mph /  3.2km/h 66% 0.00in /  0mm 0.0 W/m2
23:25 70.0 °F /  21.1 °C 58.1 °F /  14.5 °C 29.72in /  1006.3hPa Calm   1.0mph /  1.6km/h 66% 0.00in /  0mm 0.0 W/m2
23:32 70.0 °F /  21.1 °C 58.1 °F /  14.5 °C 29.72in /  1006.3hPa Calm     66% 0.00in /  0mm 0.0 W/m2
23:38 69.8 °F /  21 °C 57.9 °F /  14.4 °C 29.72in /  1006.3hPa Calm     66% 0.00in /  0mm 0.0 W/m2
23:44 69.8 °F /  21 °C 58.3 °F /  14.6 °C 29.71in /  1006hPa NE 0.9mph /  1.4km/h 1.0mph /  1.6km/h 67% 0.00in /  0mm 0.0 W/m2
23:50 69.6 °F /  20.9 °C 58.1 °F /  14.5 °C 29.71in /  1006hPa NE 2.0mph /  3.2km/h 3.0mph /  4.8km/h 67% 0.00in /  0mm 0.0 W/m2
23:56 69.6 °F /  20.9 °C 58.1 °F /  14.5 °C 29.72in /  1006.3hPa Calm   2.0mph /  3.2km/h 67% 0.00in /  0mm 0.0 W/m2
Olympia, Windhoek, Namibia
Compliments of Weather Underground - 3 mb